createdAt,value
2023-03-25T00:01:16.196Z,8.90
2023-03-25T00:03:50.469Z,8.80
2023-03-25T00:06:18.747Z,8.80
2023-03-25T00:08:46.880Z,8.70
2023-03-25T00:11:14.910Z,8.60
2023-03-25T00:13:44.528Z,8.50
2023-03-25T00:16:12.626Z,8.40
2023-03-25T00:18:40.977Z,8.40
2023-03-25T00:21:11.900Z,8.40
2023-03-25T00:23:41.955Z,8.50
2023-03-25T00:26:10.463Z,8.50
2023-03-25T00:28:39.610Z,8.40
2023-03-25T00:31:09.636Z,8.50
2023-03-25T00:33:37.628Z,8.40
2023-03-25T00:36:06.243Z,8.40
2023-03-25T00:38:37.835Z,8.50
2023-03-25T00:41:22.991Z,8.50
2023-03-25T00:43:53.778Z,8.50
2023-03-25T00:46:22.854Z,8.60
2023-03-25T00:48:52.634Z,8.60
2023-03-25T00:51:22.059Z,8.80
2023-03-25T00:53:55.031Z,9.00
2023-03-25T00:56:24.289Z,9.30
2023-03-25T00:58:52.562Z,9.30
2023-03-25T01:01:23.788Z,9.00
2023-03-25T01:03:57.808Z,8.70
2023-03-25T01:06:30.073Z,8.50
2023-03-25T01:09:00.880Z,8.30
2023-03-25T01:11:34.609Z,8.20
2023-03-25T01:14:04.760Z,8.10
2023-03-25T01:16:33.427Z,8.10
2023-03-25T01:19:01.920Z,8.00
2023-03-25T01:21:30.366Z,8.00
2023-03-25T01:23:59.751Z,8.00
2023-03-25T01:26:27.953Z,8.00
2023-03-25T01:28:56.073Z,8.00
2023-03-25T01:31:26.088Z,7.90
2023-03-25T01:33:54.429Z,7.90
2023-03-25T01:36:24.772Z,7.90
2023-03-25T01:39:08.524Z,7.90
2023-03-25T01:41:49.202Z,7.90
2023-03-25T01:44:57.237Z,7.80
2023-03-25T01:47:26.840Z,7.80
2023-03-25T01:49:55.245Z,7.80
2023-03-25T01:52:27.655Z,7.80
2023-03-25T01:54:58.016Z,7.80
2023-03-25T01:57:26.664Z,7.70
2023-03-25T01:59:56.585Z,7.80
2023-03-25T02:02:36.560Z,7.70
2023-03-25T02:05:10.665Z,7.70
2023-03-25T02:07:46.752Z,7.80
2023-03-25T02:10:16.862Z,7.80
2023-03-25T02:12:45.802Z,7.90
2023-03-25T02:15:16.201Z,7.90
2023-03-25T02:18:04.148Z,7.80
2023-03-25T02:20:54.224Z,7.70
2023-03-25T02:23:58.389Z,7.70
2023-03-25T02:26:59.810Z,7.70
2023-03-25T02:29:49.029Z,7.90
2023-03-25T02:32:31.274Z,7.90
2023-03-25T02:35:16.638Z,8.00
2023-03-25T02:38:12.218Z,8.00
2023-03-25T02:40:47.468Z,8.00
2023-03-25T02:43:21.676Z,8.00
2023-03-25T02:45:53.755Z,8.00
2023-03-25T02:48:28.066Z,8.00
2023-03-25T02:50:58.853Z,8.00
2023-03-25T02:53:33.510Z,8.10
2023-03-25T02:56:04.356Z,8.00
2023-03-25T02:58:34.148Z,8.00
2023-03-25T03:01:02.226Z,8.10
2023-03-25T03:03:32.128Z,8.10
2023-03-25T03:06:02.021Z,8.10
2023-03-25T03:08:45.078Z,8.10
2023-03-25T03:11:19.909Z,8.00
2023-03-25T03:14:00.737Z,8.00
2023-03-25T03:16:39.363Z,7.90
2023-03-25T03:19:21.273Z,8.00
2023-03-25T03:21:55.805Z,8.10
2023-03-25T03:24:31.944Z,8.10
2023-03-25T03:27:07.273Z,8.10
2023-03-25T03:29:38.994Z,8.20
2023-03-25T03:32:13.240Z,8.00
2023-03-25T03:34:47.204Z,7.90
2023-03-25T03:37:19.524Z,7.50
2023-03-25T03:39:51.925Z,7.20
2023-03-25T03:42:25.282Z,5.90
2023-03-25T03:44:57.018Z,5.70
2023-03-25T03:47:29.837Z,5.70
2023-03-25T03:50:00.581Z,5.70
2023-03-25T03:52:34.097Z,5.70
2023-03-25T03:55:10.888Z,5.80
2023-03-25T03:57:43.340Z,5.90
2023-03-25T04:00:18.533Z,5.90
2023-03-25T04:02:49.537Z,6.20
2023-03-25T04:05:20.597Z,6.30
2023-03-25T04:07:54.890Z,6.40
2023-03-25T04:10:34.750Z,6.40
2023-03-25T04:13:06.819Z,6.40
2023-03-25T04:15:34.898Z,6.40
2023-03-25T04:18:03.722Z,6.30
2023-03-25T04:20:36.623Z,6.30
2023-03-25T04:23:05.845Z,6.30
2023-03-25T04:25:35.188Z,6.20
2023-03-25T04:28:03.237Z,6.20
2023-03-25T04:30:31.227Z,6.20
2023-03-25T04:33:00.625Z,6.20
2023-03-25T04:35:28.835Z,6.20
2023-03-25T04:37:57.563Z,6.10
2023-03-25T04:40:26.695Z,6.10
2023-03-25T04:42:57.067Z,6.10
2023-03-25T04:45:26.060Z,6.10
2023-03-25T04:47:54.352Z,6.10
2023-03-25T04:50:24.525Z,6.00
2023-03-25T04:52:53.699Z,6.00
2023-03-25T04:55:22.223Z,6.00
2023-03-25T04:57:52.215Z,6.00
2023-03-25T05:00:24.092Z,5.90
2023-03-25T05:02:54.645Z,5.90
2023-03-25T05:05:24.752Z,5.90
2023-03-25T05:07:54.307Z,5.80
2023-03-25T05:10:24.850Z,5.70
2023-03-25T05:13:00.020Z,5.70
2023-03-25T05:15:30.557Z,5.80
2023-03-25T05:17:58.604Z,5.70
2023-03-25T05:20:26.740Z,5.90
2023-03-25T05:22:57.530Z,5.80
2023-03-25T05:25:25.550Z,5.90
2023-03-25T05:27:54.453Z,5.90
2023-03-25T05:30:22.445Z,5.80
2023-03-25T05:32:56.563Z,5.90
2023-03-25T05:35:27.131Z,5.80
2023-03-25T05:37:55.826Z,5.90
2023-03-25T05:40:24.005Z,5.80
2023-03-25T05:42:54.646Z,5.80
2023-03-25T05:45:22.834Z,5.90
2023-03-25T05:47:52.226Z,6.00
2023-03-25T05:50:20.263Z,6.00
2023-03-25T05:52:49.849Z,5.90
2023-03-25T05:55:20.991Z,5.90
2023-03-25T05:57:49.057Z,6.00
2023-03-25T06:00:19.660Z,6.00
2023-03-25T06:02:48.905Z,5.90
2023-03-25T06:05:23.516Z,6.00
2023-03-25T06:07:52.180Z,6.00
2023-03-25T06:10:20.949Z,6.00
2023-03-25T06:12:53.032Z,6.10
2023-03-25T06:15:28.738Z,6.10
2023-03-25T06:17:57.553Z,6.20
2023-03-25T06:20:27.424Z,6.30
2023-03-25T06:22:55.449Z,6.20
2023-03-25T06:25:24.412Z,6.10
2023-03-25T06:27:52.580Z,6.10
2023-03-25T06:30:22.083Z,6.10
2023-03-25T06:32:52.444Z,6.10
2023-03-25T06:35:21.400Z,6.20
2023-03-25T06:37:50.889Z,6.30
2023-03-25T06:40:18.960Z,6.30
2023-03-25T06:42:47.120Z,6.50
2023-03-25T06:45:16.101Z,6.60
2023-03-25T06:47:44.156Z,6.70
2023-03-25T06:50:12.493Z,6.70
2023-03-25T06:52:40.507Z,6.80
2023-03-25T06:55:11.073Z,6.90
2023-03-25T06:57:39.302Z,7.00
2023-03-25T07:00:09.853Z,7.00
2023-03-25T07:02:37.921Z,7.10
2023-03-25T07:05:06.610Z,7.20
2023-03-25T07:07:34.601Z,7.30
2023-03-25T07:10:02.592Z,7.50
2023-03-25T07:12:31.900Z,7.60
2023-03-25T07:14:59.898Z,7.60
2023-03-25T07:17:28.132Z,7.70
2023-03-25T07:19:56.125Z,7.90
2023-03-25T07:22:24.189Z,7.90
2023-03-25T07:24:52.225Z,7.90
2023-03-25T07:27:20.502Z,7.90
2023-03-25T07:29:49.818Z,8.10
2023-03-25T07:32:17.818Z,8.10
2023-03-25T07:34:45.871Z,8.30
2023-03-25T07:37:13.894Z,8.30
2023-03-25T07:39:41.936Z,8.50
2023-03-25T07:42:09.904Z,8.50
2023-03-25T07:44:37.924Z,8.60
2023-03-25T07:47:07.388Z,8.70
2023-03-25T07:49:35.433Z,8.70
2023-03-25T07:52:03.481Z,8.70
2023-03-25T07:54:31.448Z,8.80
2023-03-25T07:57:00.547Z,8.70
2023-03-25T07:59:29.461Z,8.80
2023-03-25T08:01:58.058Z,9.00
2023-03-25T08:04:29.531Z,9.10
2023-03-25T08:07:00.737Z,9.30
2023-03-25T08:09:28.990Z,9.20
2023-03-25T08:11:57.014Z,9.20
2023-03-25T08:14:27.269Z,9.20
2023-03-25T08:16:55.342Z,9.20
2023-03-25T08:19:23.315Z,9.00
2023-03-25T08:21:52.701Z,9.00
2023-03-25T08:24:20.745Z,9.00
2023-03-25T08:26:49.317Z,9.00
2023-03-25T08:29:18.112Z,9.00
2023-03-25T08:31:52.475Z,9.00
2023-03-25T08:34:21.821Z,9.00
2023-03-25T08:36:49.898Z,8.90
2023-03-25T08:39:22.009Z,9.00
2023-03-25T08:41:50.965Z,9.00
2023-03-25T08:44:18.931Z,8.90
2023-03-25T08:46:46.899Z,8.80
2023-03-25T08:49:14.874Z,8.60
2023-03-25T08:51:42.824Z,8.30
2023-03-25T08:54:10.826Z,8.20
2023-03-25T08:56:40.616Z,8.10
2023-03-25T08:59:08.640Z,7.80
2023-03-25T09:01:37.554Z,7.60
2023-03-25T09:04:08.745Z,7.40
2023-03-25T09:06:47.852Z,7.40
2023-03-25T09:09:26.018Z,7.40
2023-03-25T09:11:55.453Z,7.70
2023-03-25T09:14:24.498Z,7.80
2023-03-25T09:16:52.687Z,7.70
2023-03-25T09:19:21.282Z,7.80
2023-03-25T09:22:03.618Z,8.00
2023-03-25T09:24:34.049Z,8.10
2023-03-25T09:27:04.433Z,8.00
2023-03-25T09:29:32.813Z,7.90
2023-03-25T09:32:01.077Z,8.20
2023-03-25T09:34:39.674Z,8.20
2023-03-25T09:37:07.682Z,8.00
2023-03-25T09:39:35.702Z,7.90
2023-03-25T09:42:14.768Z,7.90
2023-03-25T09:44:55.329Z,7.90
2023-03-25T09:47:26.463Z,7.90
2023-03-25T09:50:00.723Z,7.90
2023-03-25T09:52:52.227Z,7.90
2023-03-25T09:55:26.338Z,8.00
2023-03-25T09:58:03.312Z,8.10
2023-03-25T10:00:33.596Z,8.10
2023-03-25T10:03:16.093Z,8.00
2023-03-25T10:06:18.763Z,7.90
2023-03-25T10:09:02.595Z,7.80
2023-03-25T10:11:38.013Z,7.70
2023-03-25T10:14:11.796Z,7.60
2023-03-25T10:16:51.001Z,7.60
2023-03-25T10:19:31.188Z,7.50
2023-03-25T10:22:03.186Z,7.50
2023-03-25T10:24:35.715Z,7.50
2023-03-25T10:27:06.710Z,7.40
2023-03-25T10:29:41.881Z,7.40
2023-03-25T10:32:18.298Z,7.40
2023-03-25T10:34:50.837Z,7.40
2023-03-25T10:37:29.066Z,7.40
2023-03-25T10:39:59.352Z,7.20
2023-03-25T10:42:32.770Z,7.30
2023-03-25T10:45:02.160Z,7.10
2023-03-25T10:47:34.408Z,6.90
2023-03-25T10:50:04.560Z,6.80
2023-03-25T10:52:33.670Z,6.80
2023-03-25T10:55:01.646Z,6.70
2023-03-25T10:57:31.843Z,6.70
2023-03-25T11:00:10.984Z,6.70
2023-03-25T11:02:39.081Z,6.70
2023-03-25T11:05:09.618Z,6.70
2023-03-25T11:07:41.660Z,6.60
2023-03-25T11:10:12.121Z,6.60
2023-03-25T11:12:43.735Z,6.60
2023-03-25T11:15:16.237Z,6.70
2023-03-25T11:17:46.728Z,6.90
2023-03-25T11:20:21.509Z,6.90
2023-03-25T11:22:52.552Z,7.10
2023-03-25T11:25:26.622Z,7.10
2023-03-25T11:27:57.826Z,7.30
2023-03-25T11:30:27.683Z,7.30
2023-03-25T11:33:01.047Z,7.60
2023-03-25T11:35:31.438Z,8.20
2023-03-25T11:38:01.131Z,8.40
2023-03-25T11:40:30.759Z,8.80
2023-03-25T11:43:01.202Z,9.10
2023-03-25T11:45:35.990Z,9.40
2023-03-25T11:48:12.600Z,9.50
2023-03-25T11:50:52.204Z,9.90
2023-03-25T11:53:22.311Z,9.90
2023-03-25T11:55:53.958Z,9.80
2023-03-25T11:58:28.625Z,9.40
2023-03-25T12:01:05.043Z,9.40
2023-03-25T12:03:35.069Z,9.30
2023-03-25T12:06:08.047Z,9.50
2023-03-25T12:08:44.597Z,9.70
2023-03-25T12:11:17.928Z,10.00
2023-03-25T12:14:08.599Z,10.20
2023-03-25T12:16:43.582Z,10.60
2023-03-25T12:19:20.656Z,10.70
2023-03-25T12:22:21.194Z,11.00
2023-03-25T12:25:14.019Z,11.20
2023-03-25T12:27:53.531Z,11.40
2023-03-25T12:30:34.857Z,11.30
2023-03-25T12:33:11.757Z,11.70
2023-03-25T12:35:47.522Z,11.70
2023-03-25T12:38:28.485Z,11.90
2023-03-25T12:41:16.659Z,12.10
2023-03-25T12:43:58.308Z,12.20
2023-03-25T12:46:39.190Z,12.20
2023-03-25T12:49:22.820Z,12.40
2023-03-25T12:51:58.298Z,12.70
2023-03-25T12:54:41.813Z,12.80
2023-03-25T12:57:21.011Z,12.60
2023-03-25T13:00:01.523Z,12.50
2023-03-25T13:03:01.036Z,12.20
2023-03-25T13:05:38.965Z,12.50
2023-03-25T13:08:11.402Z,12.50
2023-03-25T13:10:41.293Z,12.40
2023-03-25T13:13:15.702Z,12.20
2023-03-25T13:15:47.969Z,12.60
2023-03-25T13:18:20.479Z,12.70
2023-03-25T13:20:56.549Z,12.40
2023-03-25T13:23:26.228Z,12.40
2023-03-25T13:26:00.397Z,12.50
2023-03-25T13:28:39.534Z,12.30
2023-03-25T13:31:11.723Z,12.10
2023-03-25T13:33:45.419Z,11.90
2023-03-25T13:36:23.162Z,11.70
2023-03-25T13:38:53.491Z,11.80
2023-03-25T13:41:26.787Z,11.80
2023-03-25T13:44:04.671Z,11.60
2023-03-25T13:46:38.214Z,12.00
2023-03-25T13:49:13.226Z,12.20
2023-03-25T13:51:42.582Z,12.70
2023-03-25T13:54:16.132Z,12.80
2023-03-25T13:57:33.576Z,12.70
2023-03-25T14:00:44.603Z,12.60
2023-03-25T14:03:49.034Z,12.30
2023-03-25T14:06:45.095Z,12.00
2023-03-25T14:09:42.443Z,11.70
2023-03-25T14:12:14.539Z,11.60
2023-03-25T14:14:49.107Z,11.60
2023-03-25T14:17:29.645Z,11.60
2023-03-25T14:20:01.530Z,11.80
2023-03-25T14:22:33.792Z,11.80
2023-03-25T14:25:23.074Z,11.80
2023-03-25T14:27:52.979Z,11.70
2023-03-25T14:30:25.420Z,11.80
2023-03-25T14:32:56.241Z,11.80
2023-03-25T14:35:48.274Z,12.20
2023-03-25T14:38:54.654Z,12.00
2023-03-25T14:41:58.946Z,11.80
2023-03-25T14:44:29.669Z,11.80
2023-03-25T14:47:28.676Z,11.70
2023-03-25T14:50:05.058Z,11.70
2023-03-25T14:52:38.065Z,11.60
2023-03-25T14:55:12.191Z,11.60
2023-03-25T14:57:43.472Z,11.60
2023-03-25T15:00:21.525Z,11.50
2023-03-25T15:02:54.464Z,11.30
2023-03-25T15:05:28.688Z,10.70
2023-03-25T15:08:00.454Z,10.30
2023-03-25T15:10:34.455Z,10.00
2023-03-25T15:13:06.263Z,9.80
2023-03-25T15:15:53.256Z,9.70
2023-03-25T15:19:06.488Z,9.60
2023-03-25T15:21:51.087Z,8.90
2023-03-25T15:24:22.487Z,9.10
2023-03-25T15:26:54.521Z,9.60
2023-03-25T15:29:43.863Z,10.10
2023-03-25T15:32:26.037Z,10.70
2023-03-25T15:35:20.229Z,11.40
2023-03-25T15:38:13.948Z,11.80
2023-03-25T15:40:56.999Z,12.30
2023-03-25T15:44:01.200Z,12.60
2023-03-25T15:47:04.319Z,12.40
2023-03-25T15:50:11.006Z,12.20
2023-03-25T15:53:01.621Z,12.20
2023-03-25T15:55:34.627Z,11.60
2023-03-25T15:58:06.677Z,11.20
2023-03-25T16:00:38.662Z,10.90
2023-03-25T16:03:16.236Z,10.60
2023-03-25T16:05:48.450Z,10.60
2023-03-25T16:08:20.933Z,10.40
2023-03-25T16:10:49.191Z,10.30
2023-03-25T16:13:23.620Z,10.20
2023-03-25T16:15:54.913Z,10.10
2023-03-25T16:18:25.783Z,9.90
2023-03-25T16:20:57.243Z,9.60
2023-03-25T16:23:27.323Z,9.20
2023-03-25T16:25:56.634Z,9.10
2023-03-25T16:28:30.630Z,9.40
2023-03-25T16:30:59.083Z,9.40
2023-03-25T16:33:30.768Z,9.10
2023-03-25T16:36:01.147Z,9.00
2023-03-25T16:38:30.022Z,9.10
2023-03-25T16:41:02.645Z,9.40
2023-03-25T16:43:31.977Z,9.90
2023-03-25T16:46:02.037Z,9.90
2023-03-25T16:48:34.121Z,10.00
2023-03-25T16:51:09.506Z,10.30
2023-03-25T16:53:40.127Z,10.50
2023-03-25T16:56:23.488Z,10.60
2023-03-25T16:58:59.915Z,10.30
2023-03-25T17:01:29.467Z,9.90
2023-03-25T17:04:11.547Z,9.80
2023-03-25T17:06:44.011Z,9.60
2023-03-25T17:09:17.923Z,9.40
2023-03-25T17:11:47.659Z,9.20
2023-03-25T17:14:20.714Z,9.10
2023-03-25T17:16:53.078Z,9.00
2023-03-25T17:19:24.507Z,8.80
2023-03-25T17:22:17.102Z,8.70
2023-03-25T17:24:52.862Z,8.70
2023-03-25T17:27:28.885Z,8.70
2023-03-25T17:29:59.757Z,8.70
2023-03-25T17:32:27.996Z,8.70
2023-03-25T17:35:06.559Z,8.60
2023-03-25T17:37:34.888Z,8.60
2023-03-25T17:40:11.487Z,8.60
2023-03-25T17:42:41.770Z,8.70
2023-03-25T17:45:15.425Z,8.60
2023-03-25T17:47:43.604Z,8.70
2023-03-25T17:50:17.415Z,8.70
2023-03-25T17:52:45.913Z,8.70
2023-03-25T17:55:14.247Z,8.60
2023-03-25T17:57:42.543Z,8.60
2023-03-25T18:00:17.284Z,8.60
2023-03-25T18:02:46.493Z,8.60
2023-03-25T18:05:16.157Z,8.60
2023-03-25T18:07:44.331Z,8.50
2023-03-25T18:10:18.054Z,8.40
2023-03-25T18:12:47.043Z,8.50
2023-03-25T18:15:15.046Z,8.30
2023-03-25T18:17:43.794Z,8.30
2023-03-25T18:20:17.923Z,8.30
2023-03-25T18:22:46.366Z,8.30
2023-03-25T18:25:15.105Z,8.20
2023-03-25T18:27:44.410Z,8.20
2023-03-25T18:30:23.039Z,8.30
2023-03-25T18:32:51.261Z,8.30
2023-03-25T18:35:21.305Z,8.20
2023-03-25T18:37:49.626Z,8.30
2023-03-25T18:40:23.334Z,8.30
2023-03-25T18:42:52.186Z,8.20
2023-03-25T18:45:21.098Z,8.30
2023-03-25T18:47:49.884Z,8.20
2023-03-25T18:50:25.353Z,8.20
2023-03-25T18:52:53.620Z,8.20
2023-03-25T18:55:21.977Z,8.20
2023-03-25T18:57:50.058Z,8.10
2023-03-25T19:00:23.913Z,8.00
2023-03-25T19:02:52.871Z,8.00
2023-03-25T19:05:24.401Z,7.90
2023-03-25T19:07:52.983Z,7.80
2023-03-25T19:10:22.987Z,7.80
2023-03-25T19:12:52.435Z,7.80
2023-03-25T19:15:24.890Z,7.70
2023-03-25T19:17:53.299Z,7.60
2023-03-25T19:20:24.623Z,7.50
2023-03-25T19:22:52.816Z,7.30
2023-03-25T19:25:21.092Z,7.20
2023-03-25T19:27:49.652Z,7.10
2023-03-25T19:30:20.029Z,6.90
2023-03-25T19:32:49.584Z,6.80
2023-03-25T19:35:19.257Z,6.80
2023-03-25T19:37:50.948Z,6.80
2023-03-25T19:40:22.514Z,6.70
2023-03-25T19:42:53.323Z,7.00
2023-03-25T19:45:21.482Z,7.00
2023-03-25T19:47:52.168Z,7.00
2023-03-25T19:50:22.749Z,7.10
2023-03-25T19:52:53.752Z,7.10
2023-03-25T19:55:22.428Z,7.10
2023-03-25T19:57:51.032Z,7.10
2023-03-25T20:00:21.260Z,7.10
2023-03-25T20:02:51.391Z,7.20
2023-03-25T20:05:21.033Z,7.30
2023-03-25T20:07:51.535Z,7.20
2023-03-25T20:10:21.614Z,7.30
2023-03-25T20:12:50.440Z,7.30
2023-03-25T20:15:20.769Z,7.20
2023-03-25T20:17:50.793Z,7.10
2023-03-25T20:20:19.897Z,7.00
2023-03-25T20:22:48.455Z,7.00
2023-03-25T20:25:21.371Z,6.90
2023-03-25T20:27:49.584Z,6.80
2023-03-25T20:30:20.269Z,6.70
2023-03-25T20:32:48.998Z,6.70
2023-03-25T20:35:19.809Z,6.60
2023-03-25T20:37:52.223Z,6.50
2023-03-25T20:40:43.504Z,6.40
2023-03-25T20:43:13.923Z,6.30
2023-03-25T20:45:42.530Z,6.20
2023-03-25T20:48:10.527Z,6.20
2023-03-25T20:50:38.805Z,6.00
2023-03-25T20:53:06.849Z,6.00
2023-03-25T20:55:36.285Z,6.00
2023-03-25T20:58:04.328Z,5.90
2023-03-25T21:00:32.423Z,5.90
2023-03-25T21:03:01.814Z,5.90
2023-03-25T21:05:29.928Z,5.90
2023-03-25T21:07:57.971Z,5.70
2023-03-25T21:10:27.273Z,5.70
2023-03-25T21:12:56.660Z,5.70
2023-03-25T21:15:24.742Z,5.60
2023-03-25T21:17:52.825Z,5.60
2023-03-25T21:20:23.835Z,5.60
2023-03-25T21:22:51.878Z,5.70
2023-03-25T21:25:20.097Z,5.70
2023-03-25T21:27:48.555Z,5.70
2023-03-25T21:30:19.032Z,5.70
2023-03-25T21:32:47.109Z,5.80
2023-03-25T21:35:15.132Z,5.90
2023-03-25T21:37:43.122Z,5.90
2023-03-25T21:40:13.730Z,6.00
2023-03-25T21:42:43.161Z,6.30
2023-03-25T21:45:13.518Z,6.40
2023-03-25T21:47:43.386Z,6.60
2023-03-25T21:50:13.905Z,6.70
2023-03-25T21:52:46.984Z,6.70
2023-03-25T21:55:17.141Z,6.70
2023-03-25T21:57:47.588Z,6.70
2023-03-25T22:00:18.896Z,6.60
2023-03-25T22:02:48.721Z,6.50
2023-03-25T22:05:17.949Z,6.40
2023-03-25T22:07:46.372Z,6.30
2023-03-25T22:10:21.294Z,6.10
2023-03-25T22:12:49.348Z,6.10
2023-03-25T22:15:17.503Z,6.10
2023-03-25T22:17:45.501Z,6.00
2023-03-25T22:20:15.214Z,6.00
2023-03-25T22:22:43.473Z,6.20
2023-03-25T22:25:11.778Z,6.30
2023-03-25T22:27:39.761Z,6.20
2023-03-25T22:30:09.874Z,6.30
2023-03-25T22:32:38.109Z,6.40
2023-03-25T22:35:07.256Z,6.40
2023-03-25T22:37:37.729Z,6.50
2023-03-25T22:40:08.535Z,6.60
2023-03-25T22:42:36.692Z,6.70
2023-03-25T22:45:06.066Z,6.60
2023-03-25T22:47:34.078Z,6.50
2023-03-25T22:50:02.091Z,6.40
2023-03-25T22:52:30.300Z,6.30
2023-03-25T22:54:59.645Z,6.20
2023-03-25T22:57:27.664Z,6.10
2023-03-25T22:59:55.801Z,5.90
2023-03-25T23:02:24.003Z,5.90
2023-03-25T23:04:52.354Z,5.70
2023-03-25T23:07:20.488Z,5.80
2023-03-25T23:09:48.517Z,5.70
2023-03-25T23:12:23.063Z,5.70
2023-03-25T23:14:54.267Z,5.70
2023-03-25T23:17:22.981Z,5.70
2023-03-25T23:19:52.633Z,5.70
2023-03-25T23:22:21.224Z,5.80
2023-03-25T23:24:49.972Z,5.70
2023-03-25T23:27:20.002Z,5.70
2023-03-25T23:29:48.563Z,5.60
2023-03-25T23:32:21.226Z,5.60
2023-03-25T23:34:49.489Z,5.60
2023-03-25T23:37:18.403Z,5.40
2023-03-25T23:39:48.645Z,5.40
2023-03-25T23:42:16.702Z,5.40
2023-03-25T23:44:47.052Z,5.40
2023-03-25T23:47:15.661Z,5.30
2023-03-25T23:49:44.265Z,5.30
2023-03-25T23:52:12.936Z,5.30
2023-03-25T23:54:41.502Z,5.30
2023-03-25T23:57:11.595Z,5.30
2023-03-25T23:59:40.770Z,5.30
